Time;durP1;ratioP1;P1;durP2;ratioP2;P2;SDS_P1;SDS_P2;PMS_P1;PMS_P2;Temp;Humidity;BMP_temperature;BMP_pressure;BME280_temperature;BME280_humidity;BME280_pressure;Samples;Min_cycle;Max_cycle;Signal;HPM_P1;HPM_P2
2021/08/04 00:00:36;;;;;;;;;;;14.00;99.90;;;;;;8282631;28;20025;-64
2021/08/04 00:04:37;;;;;;;;;;;14.00;99.90;;;;;;8260253;28;19916;-64
2021/08/04 00:08:37;;;;;;;;;;;14.00;99.90;;;;;;8260301;28;20402;-64
2021/08/04 00:12:38;;;;;;;;;;;14.00;99.90;;;;;;8259930;28;20400;-64
2021/08/04 00:16:38;;;;;;;;;;;14.00;99.90;;;;;;8261888;28;19906;-64
2021/08/04 00:20:39;;;;;;;;;;;14.00;99.90;;;;;;8254894;28;20368;-64
2021/08/04 00:24:39;;;;;;;;;;;14.00;99.90;;;;;;8281724;28;19909;-64
2021/08/04 00:28:39;;;;;;;;;;;14.00;99.90;;;;;;8299333;28;19905;-64
2021/08/04 00:32:40;;;;;;;;;;;14.00;99.90;;;;;;8298883;28;20363;-64
2021/08/04 00:36:40;;;;;;;;;;;14.00;99.90;;;;;;8299348;28;19912;-64
2021/08/04 00:40:42;;;;;;;;;;;13.90;99.90;;;;;;8280524;28;19967;-64
2021/08/04 00:44:42;;;;;;;;;;;13.90;99.90;;;;;;8281204;28;20390;-64
2021/08/04 00:48:43;;;;;;;;;;;14.00;99.90;;;;;;8281264;28;19912;-64
2021/08/04 00:52:45;;;;;;;;;;;13.90;99.90;;;;;;8298365;28;19909;-64
2021/08/04 00:56:45;;;;;;;;;;;13.90;99.90;;;;;;8280717;28;19917;-64
2021/08/04 01:00:48;;;;;;;;;;;13.90;99.90;;;;;;8298107;28;19916;-64
2021/08/04 01:04:54;;;;;;;;;;;13.90;99.90;;;;;;8298549;28;19905;-64
2021/08/04 01:08:56;;;;;;;;;;;13.90;99.90;;;;;;8280973;28;20363;-64
2021/08/04 01:13:32;;;;;;;;;;;13.90;99.90;;;;;;8297999;28;20371;-64
2021/08/04 01:17:33;;;;;;;;;;;13.90;99.90;;;;;;8223575;28;20507;-64
2021/08/04 01:21:39;;;;;;;;;;;13.90;99.90;;;;;;8297292;28;19909;-64
2021/08/04 01:25:43;;;;;;;;;;;13.80;99.90;;;;;;8297546;28;19905;-64
2021/08/04 01:29:44;;;;;;;;;;;13.80;99.90;;;;;;8278726;28;20376;-64
2021/08/04 01:33:45;;;;;;;;;;;13.80;99.90;;;;;;8296914;28;19995;-64
2021/08/04 01:37:46;;;;;;;;;;;13.60;99.90;;;;;;8279710;28;20513;-64
2021/08/04 01:41:48;;;;;;;;;;;13.60;99.90;;;;;;8279141;28;20059;-64
2021/08/04 01:45:49;;;;;;;;;;;13.60;99.90;;;;;;8297073;28;20000;-64
2021/08/04 01:49:49;;;;;;;;;;;13.60;99.90;;;;;;8297090;28;20388;-64
2021/08/04 01:53:50;;;;;;;;;;;13.60;99.90;;;;;;8296522;28;19905;-64
2021/08/04 01:57:50;;;;;;;;;;;13.50;99.90;;;;;;8279172;28;19913;-64
2021/08/04 02:01:51;;;;;;;;;;;13.60;99.90;;;;;;8296328;28;19910;-64
2021/08/04 02:05:52;;;;;;;;;;;13.60;99.90;;;;;;8278847;28;19905;-64
2021/08/04 02:09:54;;;;;;;;;;;13.60;99.90;;;;;;8295748;28;20047;-64
2021/08/04 02:14:03;;;;;;;;;;;13.60;99.90;;;;;;8295892;28;19905;-64
2021/08/04 02:18:07;;;;;;;;;;;13.50;99.90;;;;;;8278663;28;19905;-64
2021/08/04 02:22:09;;;;;;;;;;;13.50;99.90;;;;;;8295454;28;20000;-64
2021/08/04 02:26:15;;;;;;;;;;;13.50;99.90;;;;;;8278198;28;19912;-64
2021/08/04 02:30:16;;;;;;;;;;;13.40;99.90;;;;;;8295718;28;20539;-64
2021/08/04 02:34:19;;;;;;;;;;;13.40;99.90;;;;;;8295732;28;19906;-64
2021/08/04 02:38:19;;;;;;;;;;;13.50;99.90;;;;;;8277860;28;20056;-65
2021/08/04 02:42:20;;;;;;;;;;;13.50;99.90;;;;;;8294951;28;19909;-64
2021/08/04 02:46:21;;;;;;;;;;;13.40;99.90;;;;;;8295177;28;19912;-64
2021/08/04 02:50:23;;;;;;;;;;;13.30;99.90;;;;;;8294654;28;19905;-64
2021/08/04 02:54:23;;;;;;;;;;;13.40;99.90;;;;;;8295129;28;19909;-65
2021/08/04 02:58:24;;;;;;;;;;;13.30;99.90;;;;;;8294824;28;19959;-64
2021/08/04 03:02:24;;;;;;;;;;;13.40;99.90;;;;;;8294419;28;20299;-65
2021/08/04 03:06:25;;;;;;;;;;;13.30;99.90;;;;;;8294489;28;19916;-64
2021/08/04 03:10:25;;;;;;;;;;;13.40;99.90;;;;;;8294166;28;20428;-64
2021/08/04 03:14:26;;;;;;;;;;;13.40;99.90;;;;;;8294588;28;19905;-64
2021/08/04 03:18:26;;;;;;;;;;;13.40;99.90;;;;;;8294378;28;19905;-64
2021/08/04 03:22:27;;;;;;;;;;;13.40;99.90;;;;;;8293696;28;20379;-64
2021/08/04 03:26:27;;;;;;;;;;;13.30;99.90;;;;;;8293951;28;20480;-65
2021/08/04 03:30:28;;;;;;;;;;;13.30;99.90;;;;;;8293768;28;20394;-65
2021/08/04 03:34:28;;;;;;;;;;;13.30;99.90;;;;;;8293870;28;20359;-64
2021/08/04 03:38:29;;;;;;;;;;;13.20;99.90;;;;;;8293421;28;19912;-65
2021/08/04 03:42:29;;;;;;;;;;;13.10;99.90;;;;;;8293456;28;19956;-64
2021/08/04 03:46:30;;;;;;;;;;;13.00;99.90;;;;;;8294057;28;20005;-65
2021/08/04 03:50:30;;;;;;;;;;;13.00;99.90;;;;;;8275440;28;19905;-65
2021/08/04 03:54:31;;;;;;;;;;;13.10;99.90;;;;;;8293648;28;19971;-65
2021/08/04 03:58:31;;;;;;;;;;;13.20;99.90;;;;;;8293408;28;20364;-65
2021/08/04 04:02:32;;;;;;;;;;;13.10;99.90;;;;;;8293222;28;19909;-65
2021/08/04 04:06:32;;;;;;;;;;;13.20;99.90;;;;;;8293072;28;19967;-65
2021/08/04 04:10:33;;;;;;;;;;;13.20;99.90;;;;;;8292899;28;19924;-65
2021/08/04 04:14:33;;;;;;;;;;;13.30;99.90;;;;;;8293258;28;19905;-65
2021/08/04 04:18:33;;;;;;;;;;;13.40;99.90;;;;;;8293212;28;19905;-65
2021/08/04 04:22:34;;;;;;;;;;;13.20;99.90;;;;;;8289294;28;20384;-65
2021/08/04 04:26:34;;;;;;;;;;;13.50;99.90;;;;;;8277320;28;19918;-65
2021/08/04 04:30:35;;;;;;;;;;;13.40;99.90;;;;;;8297085;28;19914;-65
2021/08/04 04:34:36;;;;;;;;;;;13.20;99.90;;;;;;8269031;28;19909;-65
2021/08/04 04:38:36;;;;;;;;;;;13.20;99.90;;;;;;8258770;28;19919;-65
2021/08/04 04:42:37;;;;;;;;;;;13.20;99.90;;;;;;8259548;28;20067;-65
2021/08/04 04:46:37;;;;;;;;;;;13.20;99.90;;;;;;8245152;28;20393;-65
2021/08/04 04:50:38;;;;;;;;;;;13.30;99.90;;;;;;8250947;28;20513;-65
2021/08/04 04:54:38;;;;;;;;;;;13.40;99.90;;;;;;8270957;28;19909;-65
2021/08/04 04:58:38;;;;;;;;;;;13.60;99.90;;;;;;8259816;28;19941;-65
2021/08/04 05:02:40;;;;;;;;;;;13.70;99.90;;;;;;8259737;28;19916;-65
2021/08/04 05:06:40;;;;;;;;;;;13.80;99.90;;;;;;8257896;28;19910;-65
2021/08/04 05:10:40;;;;;;;;;;;13.90;99.90;;;;;;8297872;28;19909;-65
2021/08/04 05:14:41;;;;;;;;;;;14.00;99.90;;;;;;8295355;28;19948;-65
2021/08/04 05:18:41;;;;;;;;;;;14.10;99.90;;;;;;8298347;28;19909;-65
2021/08/04 05:22:42;;;;;;;;;;;14.10;99.90;;;;;;8297231;28;19913;-65
2021/08/04 05:26:43;;;;;;;;;;;14.20;99.90;;;;;;8270265;28;19910;-66
2021/08/04 05:30:43;;;;;;;;;;;14.30;99.90;;;;;;8249114;28;19999;-65
2021/08/04 05:34:44;;;;;;;;;;;14.40;99.90;;;;;;8296686;28;19910;-65
2021/08/04 05:38:44;;;;;;;;;;;14.40;99.90;;;;;;8285657;28;19909;-65
2021/08/04 05:42:45;;;;;;;;;;;14.60;99.90;;;;;;8281382;28;19923;-65
2021/08/04 05:46:45;;;;;;;;;;;14.60;99.90;;;;;;8285750;28;19918;-65
2021/08/04 05:50:46;;;;;;;;;;;14.70;99.90;;;;;;8285717;28;19910;-65
2021/08/04 05:54:46;;;;;;;;;;;14.90;99.90;;;;;;8283994;28;19909;-65
2021/08/04 05:58:47;;;;;;;;;;;15.10;99.90;;;;;;8282842;28;19963;-65
2021/08/04 06:02:47;;;;;;;;;;;15.20;99.90;;;;;;8280842;28;19913;-65
2021/08/04 06:06:48;;;;;;;;;;;15.20;99.90;;;;;;8265782;28;20001;-65
2021/08/04 06:10:48;;;;;;;;;;;15.30;99.90;;;;;;8268217;28;19909;-65
2021/08/04 06:14:49;;;;;;;;;;;15.60;99.90;;;;;;8279609;28;20524;-65
2021/08/04 06:18:49;;;;;;;;;;;16.00;99.90;;;;;;8281067;28;19909;-65
2021/08/04 06:22:50;;;;;;;;;;;16.10;99.90;;;;;;8279853;28;19914;-65
2021/08/04 06:26:50;;;;;;;;;;;16.20;99.90;;;;;;8265013;28;19913;-65
2021/08/04 06:30:51;;;;;;;;;;;16.30;99.90;;;;;;8276923;28;19920;-66
2021/08/04 06:34:51;;;;;;;;;;;16.40;99.90;;;;;;8279283;28;20399;-66
2021/08/04 06:38:52;;;;;;;;;;;16.70;99.90;;;;;;8276841;28;20324;-67
2021/08/04 06:42:52;;;;;;;;;;;16.60;99.90;;;;;;8276701;28;19952;-67
2021/08/04 06:46:56;;;;;;;;;;;16.90;99.90;;;;;;8277540;28;19906;-66
2021/08/04 06:50:57;;;;;;;;;;;17.00;99.90;;;;;;8265908;28;19913;-66
2021/08/04 06:54:57;;;;;;;;;;;17.20;99.90;;;;;;8289516;28;19916;-66
2021/08/04 06:58:58;;;;;;;;;;;17.40;99.90;;;;;;8277101;28;19913;-66
2021/08/04 07:02:58;;;;;;;;;;;17.40;99.90;;;;;;8254948;28;20295;-65
2021/08/04 07:07:00;;;;;;;;;;;17.30;99.90;;;;;;8270887;28;20009;-66
2021/08/04 07:11:00;;;;;;;;;;;17.20;99.90;;;;;;8261966;28;20491;-66
2021/08/04 07:15:01;;;;;;;;;;;17.20;99.90;;;;;;8262095;28;19909;-66
2021/08/04 07:19:01;;;;;;;;;;;17.20;99.90;;;;;;8271057;28;19909;-66
2021/08/04 07:23:02;;;;;;;;;;;17.40;99.90;;;;;;8278455;28;20012;-66
2021/08/04 07:27:02;;;;;;;;;;;17.90;99.90;;;;;;8274284;28;19906;-66
2021/08/04 07:31:03;;;;;;;;;;;18.30;99.90;;;;;;8288707;28;20335;-66
2021/08/04 07:35:04;;;;;;;;;;;18.30;99.90;;;;;;8290454;28;20403;-66
2021/08/04 07:39:05;;;;;;;;;;;18.30;99.90;;;;;;8293668;28;20211;-65
2021/08/04 07:43:05;;;;;;;;;;;18.30;99.90;;;;;;8293303;28;19909;-66
2021/08/04 07:47:06;;;;;;;;;;;18.20;99.90;;;;;;8292696;28;19932;-66
2021/08/04 07:51:06;;;;;;;;;;;18.10;99.90;;;;;;8280236;28;19910;-65
2021/08/04 07:55:07;;;;;;;;;;;18.20;99.90;;;;;;8285473;28;20387;-65
2021/08/04 07:59:07;;;;;;;;;;;18.60;99.90;;;;;;8263481;28;19913;-66
2021/08/04 08:03:08;;;;;;;;;;;18.80;99.90;;;;;;8283895;28;20363;-66
2021/08/04 08:07:09;;;;;;;;;;;19.00;99.90;;;;;;8262280;28;19929;-65
2021/08/04 08:11:10;;;;;;;;;;;19.20;99.90;;;;;;8277004;28;20374;-66
2021/08/04 08:15:11;;;;;;;;;;;19.40;99.90;;;;;;8262598;28;19910;-65
2021/08/04 08:19:11;;;;;;;;;;;19.50;99.90;;;;;;8260139;28;19936;-66
2021/08/04 08:23:12;;;;;;;;;;;19.70;99.90;;;;;;8267908;28;19917;-65
2021/08/04 08:27:12;;;;;;;;;;;19.80;99.90;;;;;;8291817;28;19913;-65
2021/08/04 08:31:13;;;;;;;;;;;19.90;99.90;;;;;;8292250;28;19916;-65
2021/08/04 08:35:13;;;;;;;;;;;20.10;99.90;;;;;;8292595;28;19959;-66
2021/08/04 08:39:13;;;;;;;;;;;20.40;99.90;;;;;;8290341;28;20299;-66
2021/08/04 08:43:15;;;;;;;;;;;20.40;99.90;;;;;;8266492;28;19918;-64
2021/08/04 08:47:15;;;;;;;;;;;20.60;99.90;;;;;;8248863;28;19910;-65
2021/08/04 08:51:17;;;;;;;;;;;21.10;99.90;;;;;;8277305;28;20387;-66
2021/08/04 08:55:17;;;;;;;;;;;21.40;99.90;;;;;;8288219;28;19909;-66
2021/08/04 08:59:18;;;;;;;;;;;21.80;99.90;;;;;;8277057;28;20407;-66
2021/08/04 09:03:19;;;;;;;;;;;22.20;99.90;;;;;;8272188;28;19921;-65
2021/08/04 09:07:39;;;;;;;;;;;22.60;99.90;;;;;;8266266;28;20372;-66
2021/08/04 09:11:40;;;;;;;;;;;22.50;99.90;;;;;;8275168;28;19909;-66
2021/08/04 09:15:42;;;;;;;;;;;22.80;99.90;;;;;;8297021;28;20331;-66
2021/08/04 09:19:44;;;;;;;;;;;23.10;99.90;;;;;;8297284;28;19916;-66
2021/08/04 09:23:46;;;;;;;;;;;22.00;99.90;;;;;;8280772;28;20384;-66
2021/08/04 09:27:46;;;;;;;;;;;22.20;99.90;;;;;;8297472;28;19911;-65
2021/08/04 09:31:48;;;;;;;;;;;22.00;99.90;;;;;;8296393;28;20603;-66
2021/08/04 09:35:51;;;;;;;;;;;22.40;99.90;;;;;;8297309;28;20013;-66
2021/08/04 09:39:56;;;;;;;;;;;21.60;99.90;;;;;;8279827;28;19920;-66
2021/08/04 09:44:06;;;;;;;;;;;21.40;99.90;;;;;;8297307;28;20372;-66
2021/08/04 09:48:08;;;;;;;;;;;22.00;99.90;;;;;;8296972;28;20004;-66
2021/08/04 09:52:10;;;;;;;;;;;22.80;99.90;;;;;;8278901;28;19983;-66
2021/08/04 09:56:15;;;;;;;;;;;22.20;99.90;;;;;;8296977;28;19905;-66
2021/08/04 10:00:16;;;;;;;;;;;22.40;99.90;;;;;;8296890;28;20422;-66
2021/08/04 10:04:17;;;;;;;;;;;21.80;99.90;;;;;;8297028;28;19909;-66
2021/08/04 10:08:18;;;;;;;;;;;22.20;99.90;;;;;;8296587;28;19999;-66
2021/08/04 10:12:18;;;;;;;;;;;23.00;99.90;;;;;;8296187;28;20367;-66
2021/08/04 10:16:19;;;;;;;;;;;23.70;99.90;;;;;;8296250;28;19912;-66
2021/08/04 10:20:19;;;;;;;;;;;24.40;99.90;;;;;;8295780;28;19970;-67
2021/08/04 10:24:20;;;;;;;;;;;24.70;99.90;;;;;;8278503;28;19944;-66
2021/08/04 10:28:21;;;;;;;;;;;25.10;99.90;;;;;;8295802;28;19917;-66
2021/08/04 10:32:21;;;;;;;;;;;24.30;99.90;;;;;;8277195;28;19909;-66
2021/08/04 10:36:22;;;;;;;;;;;24.40;99.90;;;;;;8295439;28;19905;-66
2021/08/04 10:40:27;;;;;;;;;;;24.00;99.90;;;;;;8295219;28;19913;-66
2021/08/04 10:44:27;;;;;;;;;;;23.80;99.90;;;;;;8295385;28;19959;-66
2021/08/04 10:48:28;;;;;;;;;;;23.90;99.90;;;;;;8295340;28;20047;-66
2021/08/04 10:52:28;;;;;;;;;;;23.70;99.90;;;;;;8294561;28;19905;-67
2021/08/04 10:56:31;;;;;;;;;;;23.90;99.90;;;;;;8294785;28;19957;-66
2021/08/04 11:00:33;;;;;;;;;;;24.10;99.90;;;;;;8294664;28;20339;-66
2021/08/04 11:04:33;;;;;;;;;;;24.20;99.90;;;;;;8294830;28;19906;-66
2021/08/04 11:08:34;;;;;;;;;;;24.20;99.90;;;;;;8294731;28;20342;-66
2021/08/04 11:12:34;;;;;;;;;;;24.10;99.90;;;;;;8294169;28;19912;-66
2021/08/04 11:16:34;;;;;;;;;;;24.40;99.90;;;;;;8276626;28;19909;-66
2021/08/04 11:20:39;;;;;;;;;;;24.60;99.90;;;;;;8294100;28;20076;-66
2021/08/04 11:24:55;;;;;;;;;;;24.30;99.90;;;;;;8294192;28;19906;-66
2021/08/04 11:28:55;;;;;;;;;;;24.00;99.90;;;;;;8276455;28;20291;-66
2021/08/04 11:33:15;;;;;;;;;;;24.00;99.90;;;;;;8292811;28;19971;-66
2021/08/04 11:37:15;;;;;;;;;;;24.10;99.90;;;;;;8293870;28;19912;-66
2021/08/04 11:41:21;;;;;;;;;;;24.10;99.90;;;;;;8293288;28;19913;-66
2021/08/04 11:45:22;;;;;;;;;;;23.90;99.90;;;;;;8293608;28;19952;-66
2021/08/04 11:49:25;;;;;;;;;;;23.40;99.90;;;;;;8293609;28;20299;-66
2021/08/04 11:53:26;;;;;;;;;;;23.10;99.90;;;;;;8293066;28;20436;-66
2021/08/04 11:57:28;;;;;;;;;;;23.10;99.90;;;;;;8293203;28;20445;-66
2021/08/04 12:01:29;;;;;;;;;;;23.20;99.90;;;;;;8275297;28;19963;-66
2021/08/04 12:05:29;;;;;;;;;;;22.80;99.90;;;;;;8293142;28;20465;-66
2021/08/04 12:09:31;;;;;;;;;;;22.70;99.90;;;;;;8293372;28;20264;-66
2021/08/04 12:13:31;;;;;;;;;;;23.00;99.90;;;;;;8292185;28;19909;-66
2021/08/04 12:17:34;;;;;;;;;;;23.10;99.90;;;;;;8275388;28;19956;-66
2021/08/04 12:21:35;;;;;;;;;;;23.10;99.90;;;;;;8292594;28;19924;-67
2021/08/04 12:25:39;;;;;;;;;;;23.00;99.90;;;;;;8293143;28;19905;-66
2021/08/04 12:29:40;;;;;;;;;;;23.00;99.90;;;;;;8293060;28;20487;-66
2021/08/04 12:33:56;;;;;;;;;;;23.00;99.90;;;;;;8291328;28;19909;-66
2021/08/04 12:37:57;;;;;;;;;;;23.20;99.90;;;;;;8291850;28;19960;-66
2021/08/04 12:41:57;;;;;;;;;;;22.80;99.90;;;;;;8289997;28;19909;-66
2021/08/04 12:45:58;;;;;;;;;;;22.20;99.90;;;;;;8290280;28;19905;-66
2021/08/04 12:49:59;;;;;;;;;;;22.00;99.90;;;;;;8290000;28;19916;-66
2021/08/04 12:54:00;;;;;;;;;;;22.20;99.90;;;;;;8290391;28;19912;-66
2021/08/04 12:58:05;;;;;;;;;;;22.20;99.90;;;;;;8292154;28;20532;-66
2021/08/04 13:02:08;;;;;;;;;;;22.20;99.90;;;;;;8280274;28;20031;-66
2021/08/04 13:06:08;;;;;;;;;;;22.40;99.90;;;;;;8259881;28;19936;-66
2021/08/04 13:10:10;;;;;;;;;;;23.20;99.90;;;;;;8242201;28;19960;-66
2021/08/04 13:14:10;;;;;;;;;;;23.30;99.90;;;;;;8269334;28;20331;-66
2021/08/04 13:18:11;;;;;;;;;;;24.40;99.90;;;;;;8272321;28;19963;-66
2021/08/04 13:22:11;;;;;;;;;;;25.20;99.90;;;;;;8284595;28;19913;-66
2021/08/04 13:26:14;;;;;;;;;;;24.80;99.90;;;;;;8263311;28;19992;-66
2021/08/04 13:30:15;;;;;;;;;;;24.40;99.90;;;;;;8265519;28;19906;-66
2021/08/04 13:34:15;;;;;;;;;;;24.20;99.90;;;;;;8265242;28;19906;-66
2021/08/04 13:38:16;;;;;;;;;;;23.90;99.90;;;;;;8247205;28;20372;-66
2021/08/04 13:42:17;;;;;;;;;;;23.80;99.90;;;;;;8247225;28;19911;-66
2021/08/04 13:46:17;;;;;;;;;;;23.60;99.90;;;;;;8264887;28;19905;-66
2021/08/04 13:50:18;;;;;;;;;;;23.00;99.90;;;;;;8267632;28;19926;-66
2021/08/04 13:54:19;;;;;;;;;;;22.10;99.90;;;;;;8297212;28;19913;-66
2021/08/04 13:58:19;;;;;;;;;;;21.00;99.90;;;;;;8256982;28;20023;-66
2021/08/04 14:02:20;;;;;;;;;;;20.30;99.90;;;;;;8263894;28;19923;-66
2021/08/04 14:06:20;;;;;;;;;;;19.90;99.90;;;;;;8246637;28;19933;-66
2021/08/04 14:10:22;;;;;;;;;;;19.70;99.90;;;;;;8271299;28;19909;-66
2021/08/04 14:14:22;;;;;;;;;;;19.60;99.90;;;;;;8296545;28;19913;-65
2021/08/04 14:18:23;;;;;;;;;;;19.40;99.90;;;;;;8296170;28;20512;-65
2021/08/04 14:22:23;;;;;;;;;;;19.30;99.90;;;;;;8295560;28;19909;-66
2021/08/04 14:26:24;;;;;;;;;;;19.10;99.90;;;;;;8294219;28;19912;-65
2021/08/04 14:30:24;;;;;;;;;;;18.90;99.90;;;;;;8293507;28;19963;-65
2021/08/04 14:34:25;;;;;;;;;;;18.80;99.90;;;;;;8293991;28;19905;-65
2021/08/04 14:38:25;;;;;;;;;;;18.90;99.90;;;;;;8295197;28;19916;-65
2021/08/04 14:42:26;;;;;;;;;;;18.80;99.90;;;;;;8287311;28;19925;-65
2021/08/04 14:46:26;;;;;;;;;;;18.80;99.90;;;;;;8265549;28;19914;-65
2021/08/04 14:50:27;;;;;;;;;;;18.70;99.90;;;;;;8267088;28;20376;-65
2021/08/04 14:54:27;;;;;;;;;;;18.60;99.90;;;;;;8277565;28;20008;-65
2021/08/04 14:58:28;;;;;;;;;;;18.50;99.90;;;;;;8294678;28;19913;-65
2021/08/04 15:02:29;;;;;;;;;;;18.50;99.90;;;;;;8277042;28;19913;-65
2021/08/04 15:06:30;;;;;;;;;;;18.60;99.90;;;;;;8294710;28;20008;-65
2021/08/04 15:10:31;;;;;;;;;;;18.60;99.90;;;;;;8276618;28;19905;-65
2021/08/04 15:14:31;;;;;;;;;;;18.50;99.90;;;;;;8292078;28;20647;-65
2021/08/04 15:18:32;;;;;;;;;;;18.60;99.90;;;;;;8292302;28;19906;-66
2021/08/04 15:22:33;;;;;;;;;;;18.60;99.90;;;;;;8267169;28;19933;-65
2021/08/04 15:26:33;;;;;;;;;;;18.60;99.90;;;;;;8274980;28;20300;-64
2021/08/04 15:30:34;;;;;;;;;;;18.70;99.90;;;;;;8278633;28;20292;-65
2021/08/04 15:34:34;;;;;;;;;;;18.60;99.90;;;;;;8280182;28;20326;-65
2021/08/04 15:38:36;;;;;;;;;;;18.40;99.90;;;;;;8281829;28;19909;-64
2021/08/04 15:42:36;;;;;;;;;;;18.20;99.90;;;;;;8289122;28;19924;-64
2021/08/04 15:46:37;;;;;;;;;;;18.10;99.90;;;;;;8287491;28;20209;-65
2021/08/04 15:50:37;;;;;;;;;;;18.10;99.90;;;;;;8253257;28;20293;-65
2021/08/04 15:54:38;;;;;;;;;;;17.90;99.90;;;;;;8286374;28;19949;-65
2021/08/04 15:58:38;;;;;;;;;;;17.80;99.90;;;;;;8271357;28;20051;-65
2021/08/04 16:02:39;;;;;;;;;;;17.70;99.90;;;;;;8258578;28;20000;-65
2021/08/04 16:06:40;;;;;;;;;;;17.70;99.90;;;;;;8255039;28;19910;-64
2021/08/04 16:10:40;;;;;;;;;;;17.70;99.90;;;;;;8243571;28;19906;-65
2021/08/04 16:14:41;;;;;;;;;;;17.70;99.90;;;;;;8282340;28;19971;-64
2021/08/04 16:18:41;;;;;;;;;;;17.60;99.90;;;;;;8289171;28;19913;-64
2021/08/04 16:22:42;;;;;;;;;;;17.60;99.90;;;;;;8291393;28;19910;-64
2021/08/04 16:26:42;;;;;;;;;;;17.60;99.90;;;;;;8290283;28;20345;-64
2021/08/04 16:30:43;;;;;;;;;;;17.40;99.90;;;;;;8291417;28;19959;-64
2021/08/04 16:34:43;;;;;;;;;;;17.40;99.90;;;;;;8270719;28;19951;-64
2021/08/04 16:38:44;;;;;;;;;;;17.30;99.90;;;;;;8278352;28;19913;-65
2021/08/04 16:42:44;;;;;;;;;;;17.30;99.90;;;;;;8270946;28;19963;-65
2021/08/04 16:46:45;;;;;;;;;;;17.30;99.90;;;;;;8275991;28;19906;-64
2021/08/04 16:50:45;;;;;;;;;;;17.20;99.90;;;;;;8269353;28;19910;-65
2021/08/04 16:54:46;;;;;;;;;;;17.30;99.90;;;;;;8290897;28;19914;-64
2021/08/04 16:58:46;;;;;;;;;;;17.20;99.90;;;;;;8294552;28;19940;-64
2021/08/04 17:02:47;;;;;;;;;;;17.10;99.90;;;;;;8298819;28;19910;-64
2021/08/04 17:06:47;;;;;;;;;;;17.10;99.90;;;;;;8298588;28;19945;-64
2021/08/04 17:10:49;;;;;;;;;;;17.10;99.90;;;;;;8298807;28;19905;-64
2021/08/04 17:14:50;;;;;;;;;;;17.00;99.90;;;;;;8298668;28;19909;-64
2021/08/04 17:18:50;;;;;;;;;;;16.90;99.90;;;;;;8298418;28;19906;-64
2021/08/04 17:22:52;;;;;;;;;;;17.00;99.90;;;;;;8298026;28;19928;-64
2021/08/04 17:26:52;;;;;;;;;;;16.80;99.90;;;;;;8298171;28;19909;-64
2021/08/04 17:30:53;;;;;;;;;;;16.80;99.90;;;;;;8298126;28;19912;-64
2021/08/04 17:34:53;;;;;;;;;;;16.70;99.90;;;;;;8298245;28;19933;-64
2021/08/04 17:38:54;;;;;;;;;;;16.90;99.90;;;;;;8280649;28;19911;-65
2021/08/04 17:42:54;;;;;;;;;;;16.70;99.90;;;;;;8297274;28;19913;-64
2021/08/04 17:46:55;;;;;;;;;;;16.60;99.90;;;;;;8297437;28;19905;-65
2021/08/04 17:50:55;;;;;;;;;;;16.60;99.90;;;;;;8297190;28;20028;-65
2021/08/04 17:54:56;;;;;;;;;;;16.50;99.90;;;;;;8297290;28;19916;-65
2021/08/04 17:58:56;;;;;;;;;;;16.50;99.90;;;;;;8297153;28;19925;-64
2021/08/04 18:02:57;;;;;;;;;;;16.60;99.90;;;;;;8296874;28;19992;-64
2021/08/04 18:06:57;;;;;;;;;;;16.40;99.90;;;;;;8279228;28;19905;-65
2021/08/04 18:10:57;;;;;;;;;;;16.40;99.90;;;;;;8296217;28;19905;-65
2021/08/04 18:14:59;;;;;;;;;;;16.30;99.90;;;;;;8296792;28;20055;-65
2021/08/04 18:19:00;;;;;;;;;;;16.20;99.90;;;;;;8279250;28;20398;-65
2021/08/04 18:23:00;;;;;;;;;;;16.10;99.90;;;;;;8296245;28;19909;-65
2021/08/04 18:27:00;;;;;;;;;;;16.00;99.90;;;;;;8296385;28;19909;-65
2021/08/04 18:31:01;;;;;;;;;;;16.00;99.90;;;;;;8278713;28;20020;-65
2021/08/04 18:35:02;;;;;;;;;;;15.90;99.90;;;;;;8296338;28;19913;-64
2021/08/04 18:39:03;;;;;;;;;;;16.00;99.90;;;;;;8296381;28;19905;-64
2021/08/04 18:43:03;;;;;;;;;;;16.10;99.90;;;;;;8295678;28;20372;-64
2021/08/04 18:47:04;;;;;;;;;;;16.10;99.90;;;;;;8295934;28;19905;-65
2021/08/04 18:51:04;;;;;;;;;;;16.00;99.90;;;;;;8295620;28;20291;-64
2021/08/04 18:55:05;;;;;;;;;;;16.20;99.90;;;;;;8295634;28;19988;-64
2021/08/04 18:59:06;;;;;;;;;;;16.10;99.90;;;;;;8295652;28;19914;-64
2021/08/04 19:03:06;;;;;;;;;;;16.10;99.90;;;;;;8295872;28;20001;-64
2021/08/04 19:07:06;;;;;;;;;;;16.10;99.90;;;;;;8294363;28;19955;-63
2021/08/04 19:11:08;;;;;;;;;;;15.90;99.90;;;;;;8295120;28;19988;-63
2021/08/04 19:15:08;;;;;;;;;;;15.80;99.90;;;;;;8295326;28;19944;-63
2021/08/04 19:19:09;;;;;;;;;;;15.70;99.90;;;;;;8277581;28;20375;-63
2021/08/04 19:23:09;;;;;;;;;;;15.80;99.90;;;;;;8294420;28;19910;-64
2021/08/04 19:27:10;;;;;;;;;;;15.70;99.90;;;;;;8277362;28;20376;-63
2021/08/04 19:31:10;;;;;;;;;;;15.70;99.90;;;;;;8294694;28;19988;-63
2021/08/04 19:35:11;;;;;;;;;;;15.60;99.90;;;;;;8294721;28;20004;-64
2021/08/04 19:39:12;;;;;;;;;;;15.40;99.90;;;;;;8294719;28;20367;-63
2021/08/04 19:43:16;;;;;;;;;;;15.40;99.90;;;;;;8294370;28;19909;-63
2021/08/04 19:47:17;;;;;;;;;;;15.30;99.90;;;;;;8276781;28;20465;-62
2021/08/04 19:51:17;;;;;;;;;;;15.20;99.90;;;;;;8294084;28;19909;-64
2021/08/04 19:55:18;;;;;;;;;;;15.30;99.90;;;;;;8293867;28;20352;-64
2021/08/04 19:59:18;;;;;;;;;;;15.30;99.90;;;;;;8294117;28;19920;-63
2021/08/04 20:03:19;;;;;;;;;;;15.30;99.90;;;;;;8293530;28;20395;-63
2021/08/04 20:07:19;;;;;;;;;;;15.20;99.90;;;;;;8293571;28;19905;-63
2021/08/04 20:11:20;;;;;;;;;;;15.30;99.90;;;;;;8293773;28;19905;-64
2021/08/04 20:15:20;;;;;;;;;;;15.10;99.90;;;;;;8293738;28;20452;-63
2021/08/04 20:19:21;;;;;;;;;;;15.10;99.90;;;;;;8276086;28;19905;-64
2021/08/04 20:23:21;;;;;;;;;;;15.00;99.90;;;;;;8292981;28;20364;-63
2021/08/04 20:27:22;;;;;;;;;;;14.90;99.90;;;;;;8293438;28;19912;-64
2021/08/04 20:31:22;;;;;;;;;;;14.70;99.90;;;;;;8293463;28;19952;-64
2021/08/04 20:35:23;;;;;;;;;;;14.70;99.90;;;;;;8296761;28;19913;-64
2021/08/04 20:39:23;;;;;;;;;;;14.80;99.90;;;;;;8299531;28;19912;-63
2021/08/04 20:43:24;;;;;;;;;;;14.80;99.90;;;;;;8299537;28;19917;-64
2021/08/04 20:47:24;;;;;;;;;;;14.70;99.90;;;;;;8299945;28;19905;-63
2021/08/04 20:51:25;;;;;;;;;;;14.70;99.90;;;;;;8299464;28;19906;-64
2021/08/04 20:55:26;;;;;;;;;;;14.70;99.90;;;;;;8281580;28;19906;-64
2021/08/04 20:59:27;;;;;;;;;;;14.80;99.90;;;;;;8282092;28;19949;-63
2021/08/04 21:03:28;;;;;;;;;;;14.70;99.90;;;;;;8298848;28;19909;-64
2021/08/04 21:07:32;;;;;;;;;;;14.70;99.90;;;;;;8298787;28;20392;-63
2021/08/04 21:11:35;;;;;;;;;;;14.70;99.90;;;;;;8298733;28;19945;-63
2021/08/04 21:15:35;;;;;;;;;;;14.60;99.90;;;;;;8299057;28;19914;-63
2021/08/04 21:19:36;;;;;;;;;;;14.70;99.90;;;;;;8281196;28;19914;-64
2021/08/04 21:23:36;;;;;;;;;;;14.60;99.90;;;;;;8297919;28;19944;-64
2021/08/04 21:27:37;;;;;;;;;;;14.50;99.90;;;;;;8298159;28;20284;-63
2021/08/04 21:31:38;;;;;;;;;;;14.50;99.90;;;;;;8298137;28;19906;-63
2021/08/04 21:35:38;;;;;;;;;;;14.40;99.90;;;;;;8298311;28;19912;-63
2021/08/04 21:39:38;;;;;;;;;;;14.30;99.90;;;;;;8298032;28;19906;-63
2021/08/04 21:43:39;;;;;;;;;;;14.50;99.90;;;;;;8297489;28;20014;-63
2021/08/04 21:47:40;;;;;;;;;;;14.40;99.90;;;;;;8279064;28;19912;-63
2021/08/04 21:51:41;;;;;;;;;;;14.40;99.90;;;;;;8297244;28;20291;-63
2021/08/04 21:55:41;;;;;;;;;;;14.30;99.90;;;;;;8279709;28;19912;-64
2021/08/04 21:59:42;;;;;;;;;;;14.40;99.90;;;;;;8297434;28;19967;-64
2021/08/04 22:03:42;;;;;;;;;;;14.60;99.90;;;;;;8296980;28;19910;-63
2021/08/04 22:07:44;;;;;;;;;;;14.40;99.90;;;;;;8296565;28;19906;-63
2021/08/04 22:11:44;;;;;;;;;;;14.30;99.90;;;;;;8296721;28;20423;-63
2021/08/04 22:15:45;;;;;;;;;;;14.30;99.90;;;;;;8296999;28;19927;-63
2021/08/04 22:19:48;;;;;;;;;;;14.30;99.90;;;;;;8296920;28;19910;-64
2021/08/04 22:23:48;;;;;;;;;;;14.50;99.90;;;;;;8278894;28;19916;-64
2021/08/04 22:27:48;;;;;;;;;;;14.30;99.90;;;;;;8296314;28;19906;-63
2021/08/04 22:31:49;;;;;;;;;;;14.20;99.90;;;;;;8296166;28;20515;-62
2021/08/04 22:35:49;;;;;;;;;;;14.20;99.90;;;;;;8296439;28;19992;-63
2021/08/04 22:39:50;;;;;;;;;;;14.00;99.90;;;;;;8295989;28;19905;-63
2021/08/04 22:43:50;;;;;;;;;;;14.00;99.90;;;;;;8275606;28;19925;-64
2021/08/04 22:47:51;;;;;;;;;;;14.00;99.90;;;;;;8277852;28;19913;-62
2021/08/04 22:51:52;;;;;;;;;;;13.90;99.90;;;;;;8288860;28;19955;-63
2021/08/04 22:55:52;;;;;;;;;;;13.70;99.90;;;;;;8265307;28;19916;-62
2021/08/04 22:59:52;;;;;;;;;;;13.60;99.90;;;;;;8282450;28;19913;-62
2021/08/04 23:03:53;;;;;;;;;;;13.80;99.90;;;;;;8294693;28;19909;-62
2021/08/04 23:07:53;;;;;;;;;;;13.80;99.90;;;;;;8293457;28;20390;-62
2021/08/04 23:11:54;;;;;;;;;;;14.10;99.90;;;;;;8294824;28;19912;-63
2021/08/04 23:15:54;;;;;;;;;;;13.90;99.90;;;;;;8295070;28;19909;-62
2021/08/04 23:19:55;;;;;;;;;;;13.80;99.90;;;;;;8295009;28;19945;-62